sensor_id;sensor_type;location;lat;lon;timestamp;pressure;altitude;pressure_sealevel;temperature;humidity
75290;BME280;63883;48.996;20.804;2022-12-18T15:16:11;98531.53;;;-10.41;87.60
75290;BME280;63883;48.996;20.804;2022-12-18T15:18:41;98533.22;;;-10.50;87.10
75290;BME280;63883;48.996;20.804;2022-12-18T15:21:09;98526.41;;;-10.62;87.16
75290;BME280;63883;48.996;20.804;2022-12-18T15:23:46;98538.56;;;-10.74;87.31
75290;BME280;63883;48.996;20.804;2022-12-18T15:26:14;98539.50;;;-10.82;87.59
75290;BME280;63883;48.996;20.804;2022-12-18T15:34:00;98545.03;;;-11.03;88.98
75290;BME280;63883;48.996;20.804;2022-12-18T15:36:29;98548.25;;;-10.94;89.29
75290;BME280;63883;48.996;20.804;2022-12-18T15:38:56;98549.22;;;-11.02;88.64
75290;BME280;63883;48.996;20.804;2022-12-18T15:41:25;98550.69;;;-11.04;88.20
75290;BME280;63883;48.996;20.804;2022-12-18T15:43:52;98553.47;;;-11.10;88.16
75290;BME280;63883;48.996;20.804;2022-12-18T15:46:19;98561.72;;;-11.10;87.34
75290;BME280;63883;48.996;20.804;2022-12-18T15:48:47;98561.19;;;-11.16;86.75
75290;BME280;63883;48.996;20.804;2022-12-18T15:51:20;98566.03;;;-11.26;87.88
75290;BME280;63883;48.996;20.804;2022-12-18T15:53:48;98561.88;;;-11.35;88.18
75290;BME280;63883;48.996;20.804;2022-12-18T15:56:15;98573.81;;;-11.40;88.34
75290;BME280;63883;48.996;20.804;2022-12-18T15:59:01;98565.78;;;-11.56;88.04
75290;BME280;63883;48.996;20.804;2022-12-18T16:01:29;98575.41;;;-11.68;87.88
75290;BME280;63883;48.996;20.804;2022-12-18T16:03:55;98579.66;;;-11.75;88.93
75290;BME280;63883;48.996;20.804;2022-12-18T16:06:22;98583.56;;;-11.77;88.70
75290;BME280;63883;48.996;20.804;2022-12-18T16:08:48;98581.84;;;-11.78;89.56
75290;BME280;63883;48.996;20.804;2022-12-18T16:11:21;98583.22;;;-11.72;90.24
75290;BME280;63883;48.996;20.804;2022-12-18T16:14:24;98581.84;;;-11.78;89.49
75290;BME280;63883;48.996;20.804;2022-12-18T16:17:00;98593.72;;;-11.74;89.98
75290;BME280;63883;48.996;20.804;2022-12-18T16:19:27;98595.72;;;-11.79;89.44
75290;BME280;63883;48.996;20.804;2022-12-18T16:21:55;98596.78;;;-11.86;89.67
75290;BME280;63883;48.996;20.804;2022-12-18T16:24:26;98601.84;;;-11.93;89.66
75290;BME280;63883;48.996;20.804;2022-12-18T16:26:53;98603.03;;;-11.98;90.65
75290;BME280;63883;48.996;20.804;2022-12-18T16:29:20;98609.41;;;-12.00;91.01
75290;BME280;63883;48.996;20.804;2022-12-18T16:31:53;98615.91;;;-12.00;91.51
75290;BME280;63883;48.996;20.804;2022-12-18T16:34:20;98617.19;;;-11.95;91.28
75290;BME280;63883;48.996;20.804;2022-12-18T16:36:49;98611.84;;;-11.91;91.10
75290;BME280;63883;48.996;20.804;2022-12-18T16:39:16;98610.13;;;-11.73;90.12
75290;BME280;63883;48.996;20.804;2022-12-18T16:41:41;98610.44;;;-11.70;89.91
75290;BME280;63883;48.996;20.804;2022-12-18T16:44:08;98607.25;;;-11.69;89.79
75290;BME280;63883;48.996;20.804;2022-12-18T16:46:33;98614.16;;;-11.65;89.78
75290;BME280;63883;48.996;20.804;2022-12-18T16:49:00;98614.44;;;-11.62;89.10
75290;BME280;63883;48.996;20.804;2022-12-18T16:51:26;98624.06;;;-11.74;88.32
75290;BME280;63883;48.996;20.804;2022-12-18T16:53:53;98628.66;;;-11.68;88.80
75290;BME280;63883;48.996;20.804;2022-12-18T16:56:20;98633.91;;;-11.74;88.51
75290;BME280;63883;48.996;20.804;2022-12-18T16:58:50;98640.63;;;-11.81;88.82
75290;BME280;63883;48.996;20.804;2022-12-18T17:01:16;98646.25;;;-11.82;88.62
75290;BME280;63883;48.996;20.804;2022-12-18T17:03:42;98656.97;;;-11.91;88.61
75290;BME280;63883;48.996;20.804;2022-12-18T17:06:08;98657.25;;;-11.88;88.91
75290;BME280;63883;48.996;20.804;2022-12-18T17:08:33;98656.53;;;-11.87;88.68
75290;BME280;63883;48.996;20.804;2022-12-18T17:11:05;98665.53;;;-11.96;88.58
75290;BME280;63883;48.996;20.804;2022-12-18T17:13:31;98658.41;;;-11.93;88.92
75290;BME280;63883;48.996;20.804;2022-12-18T17:16:04;98656.53;;;-11.87;87.77
75290;BME280;63883;48.996;20.804;2022-12-18T17:18:32;98664.78;;;-11.95;88.22
75290;BME280;63883;48.996;20.804;2022-12-18T17:20:59;98655.97;;;-12.01;88.53
75290;BME280;63883;48.996;20.804;2022-12-18T17:23:26;98647.31;;;-12.06;88.72
75290;BME280;63883;48.996;20.804;2022-12-18T17:25:56;98655.56;;;-12.06;89.39
75290;BME280;63883;48.996;20.804;2022-12-18T17:28:24;98655.25;;;-12.09;89.11
75290;BME280;63883;48.996;20.804;2022-12-18T17:30:54;98656.28;;;-12.15;89.97
75290;BME280;63883;48.996;20.804;2022-12-18T17:33:20;98658.75;;;-12.15;91.04
75290;BME280;63883;48.996;20.804;2022-12-18T17:35:46;98669.91;;;-12.19;90.11
75290;BME280;63883;48.996;20.804;2022-12-18T17:38:12;98682.03;;;-12.29;88.87
75290;BME280;63883;48.996;20.804;2022-12-18T17:40:38;98676.88;;;-12.32;87.58
75290;BME280;63883;48.996;20.804;2022-12-18T17:43:06;98686.69;;;-12.32;87.06
75290;BME280;63883;48.996;20.804;2022-12-18T17:45:39;98678.44;;;-12.33;86.77
75290;BME280;63883;48.996;20.804;2022-12-18T17:48:06;98693.63;;;-12.37;86.89
75290;BME280;63883;48.996;20.804;2022-12-18T17:50:33;98691.91;;;-12.46;87.28
75290;BME280;63883;48.996;20.804;2022-12-18T17:52:59;98691.44;;;-12.59;87.81
75290;BME280;63883;48.996;20.804;2022-12-18T17:55:26;98696.63;;;-12.65;89.10
75290;BME280;63883;48.996;20.804;2022-12-18T17:57:53;98701.25;;;-12.59;89.42
75290;BME280;63883;48.996;20.804;2022-12-18T18:00:19;98697.94;;;-12.51;89.39
75290;BME280;63883;48.996;20.804;2022-12-18T18:02:46;98699.41;;;-12.36;88.37
75290;BME280;63883;48.996;20.804;2022-12-18T18:05:12;98696.53;;;-12.32;87.65
75290;BME280;63883;48.996;20.804;2022-12-18T18:07:38;98689.72;;;-12.35;87.56
75290;BME280;63883;48.996;20.804;2022-12-18T18:10:05;98688.41;;;-12.48;87.36
75290;BME280;63883;48.996;20.804;2022-12-18T18:12:32;98679.91;;;-12.69;87.85
75290;BME280;63883;48.996;20.804;2022-12-18T18:15:17;98673.66;;;-12.83;88.44
75290;BME280;63883;48.996;20.804;2022-12-18T18:17:43;98665.56;;;-12.90;89.13
75290;BME280;63883;48.996;20.804;2022-12-18T18:20:09;98667.13;;;-12.99;88.49
75290;BME280;63883;48.996;20.804;2022-12-18T18:22:35;98656.44;;;-13.09;88.91
75290;BME280;63883;48.996;20.804;2022-12-18T18:25:00;98661.81;;;-13.13;89.79
75290;BME280;63883;48.996;20.804;2022-12-18T18:27:30;98654.97;;;-13.24;88.99
75290;BME280;63883;48.996;20.804;2022-12-18T18:29:55;98648.03;;;-13.36;88.59
75290;BME280;63883;48.996;20.804;2022-12-18T18:32:21;98648.88;;;-13.45;88.79
75290;BME280;63883;48.996;20.804;2022-12-18T18:34:47;98645.81;;;-13.51;89.56
75290;BME280;63883;48.996;20.804;2022-12-18T18:37:13;98648.94;;;-13.60;89.47
75290;BME280;63883;48.996;20.804;2022-12-18T18:39:38;98656.19;;;-13.62;88.78
75290;BME280;63883;48.996;20.804;2022-12-18T18:42:04;98662.22;;;-13.58;88.91
75290;BME280;63883;48.996;20.804;2022-12-18T18:44:30;98658.09;;;-13.51;88.69
75290;BME280;63883;48.996;20.804;2022-12-18T18:46:57;98658.09;;;-13.51;89.51
75290;BME280;63883;48.996;20.804;2022-12-18T18:49:24;98664.84;;;-13.57;89.67
75290;BME280;63883;48.996;20.804;2022-12-18T18:51:55;98664.53;;;-13.60;90.23
75290;BME280;63883;48.996;20.804;2022-12-18T18:54:21;98667.69;;;-13.61;90.27
75290;BME280;63883;48.996;20.804;2022-12-18T18:56:48;98675.78;;;-13.62;90.54
75290;BME280;63883;48.996;20.804;2022-12-18T18:59:14;98681.47;;;-13.54;90.88
75290;BME280;63883;48.996;20.804;2022-12-18T19:01:40;98693.72;;;-13.46;90.70
75290;BME280;63883;48.996;20.804;2022-12-18T19:04:06;98694.66;;;-13.28;89.82
75290;BME280;63883;48.996;20.804;2022-12-18T19:06:32;98700.00;;;-13.23;89.22
75290;BME280;63883;48.996;20.804;2022-12-18T19:08:59;98697.88;;;-13.20;88.05
75290;BME280;63883;48.996;20.804;2022-12-18T19:11:26;98701.56;;;-13.32;87.67
75290;BME280;63883;48.996;20.804;2022-12-18T19:14:12;98706.69;;;-13.47;88.34
75290;BME280;63883;48.996;20.804;2022-12-18T19:16:38;98715.78;;;-13.54;88.67
75290;BME280;63883;48.996;20.804;2022-12-18T19:19:04;98716.19;;;-13.58;89.24
75290;BME280;63883;48.996;20.804;2022-12-18T19:21:30;98728.88;;;-13.62;89.55
75290;BME280;63883;48.996;20.804;2022-12-18T19:23:57;98723.38;;;-13.60;90.62
75290;BME280;63883;48.996;20.804;2022-12-18T19:26:23;98714.50;;;-13.51;89.83
75290;BME280;63883;48.996;20.804;2022-12-18T19:28:49;98715.31;;;-13.59;89.23
75290;BME280;63883;48.996;20.804;2022-12-18T19:31:16;98715.91;;;-13.53;89.59
75290;BME280;63883;48.996;20.804;2022-12-18T19:33:44;98726.16;;;-13.57;89.51
75290;BME280;63883;48.996;20.804;2022-12-18T19:38:40;98711.94;;;-13.43;87.91
75290;BME280;63883;48.996;20.804;2022-12-18T19:41:07;98719.44;;;-13.42;86.83
75290;BME280;63883;48.996;20.804;2022-12-18T19:43:33;98717.97;;;-13.49;87.06
75290;BME280;63883;48.996;20.804;2022-12-18T19:46:02;98719.50;;;-13.58;87.45
75290;BME280;63883;48.996;20.804;2022-12-18T19:48:29;98723.81;;;-13.64;87.11
75290;BME280;63883;48.996;20.804;2022-12-18T19:50:55;98718.25;;;-13.78;86.67
75290;BME280;63883;48.996;20.804;2022-12-18T19:53:21;98713.41;;;-13.94;86.85
75290;BME280;63883;48.996;20.804;2022-12-18T19:55:46;98717.69;;;-14.00;86.76
75290;BME280;63883;48.996;20.804;2022-12-18T19:58:12;98720.63;;;-14.11;86.80
75290;BME280;63883;48.996;20.804;2022-12-18T20:00:38;98719.28;;;-14.16;87.51
75290;BME280;63883;48.996;20.804;2022-12-18T20:03:03;98724.00;;;-14.27;88.06
75290;BME280;63883;48.996;20.804;2022-12-18T20:05:30;98729.53;;;-14.36;87.77
75290;BME280;63883;48.996;20.804;2022-12-18T20:07:55;98733.13;;;-14.41;87.91
75290;BME280;63883;48.996;20.804;2022-12-18T20:10:21;98737.28;;;-14.40;88.31
75290;BME280;63883;48.996;20.804;2022-12-18T20:12:47;98746.63;;;-14.45;88.23
75290;BME280;63883;48.996;20.804;2022-12-18T20:15:13;98753.53;;;-14.49;87.71
75290;BME280;63883;48.996;20.804;2022-12-18T20:17:38;98749.88;;;-14.53;87.95
75290;BME280;63883;48.996;20.804;2022-12-18T20:20:05;98750.75;;;-14.52;88.95
75290;BME280;63883;48.996;20.804;2022-12-18T20:22:30;98741.72;;;-14.45;89.23
75290;BME280;63883;48.996;20.804;2022-12-18T20:24:56;98751.69;;;-14.43;89.04
75290;BME280;63883;48.996;20.804;2022-12-18T20:27:22;98752.94;;;-14.47;88.90
75290;BME280;63883;48.996;20.804;2022-12-18T20:29:48;98747.03;;;-14.49;88.74
75290;BME280;63883;48.996;20.804;2022-12-18T20:32:14;98748.03;;;-14.47;89.07
75290;BME280;63883;48.996;20.804;2022-12-18T20:34:40;98750.50;;;-14.47;89.13
75290;BME280;63883;48.996;20.804;2022-12-18T20:37:06;98764.56;;;-14.53;88.99
75290;BME280;63883;48.996;20.804;2022-12-18T20:39:32;98769.78;;;-14.50;89.20
75290;BME280;63883;48.996;20.804;2022-12-18T20:41:57;98770.75;;;-14.32;88.90
75290;BME280;63883;48.996;20.804;2022-12-18T20:44:23;98770.22;;;-14.30;88.52
75290;BME280;63883;48.996;20.804;2022-12-18T20:46:54;98767.31;;;-14.34;88.43
75290;BME280;63883;48.996;20.804;2022-12-18T20:49:23;98782.81;;;-14.42;87.88
75290;BME280;63883;48.996;20.804;2022-12-18T20:51:50;98786.94;;;-14.50;88.43
75290;BME280;63883;48.996;20.804;2022-12-18T20:54:16;98794.50;;;-14.55;88.74
75290;BME280;63883;48.996;20.804;2022-12-18T20:56:42;98785.59;;;-14.55;88.92
75290;BME280;63883;48.996;20.804;2022-12-18T20:59:08;98793.50;;;-14.42;88.28
75290;BME280;63883;48.996;20.804;2022-12-18T21:01:33;98781.84;;;-14.36;87.47
75290;BME280;63883;48.996;20.804;2022-12-18T21:03:59;98785.44;;;-14.41;86.83
75290;BME280;63883;48.996;20.804;2022-12-18T21:06:25;98785.97;;;-14.59;86.11
75290;BME280;63883;48.996;20.804;2022-12-18T21:08:51;98791.00;;;-14.73;86.15
75290;BME280;63883;48.996;20.804;2022-12-18T21:11:28;98794.00;;;-14.91;86.21
75290;BME280;63883;48.996;20.804;2022-12-18T21:14:21;98794.91;;;-14.98;87.50
75290;BME280;63883;48.996;20.804;2022-12-18T21:16:47;98799.91;;;-14.89;87.48
75290;BME280;63883;48.996;20.804;2022-12-18T21:19:16;98793.34;;;-14.82;87.69
75290;BME280;63883;48.996;20.804;2022-12-18T21:21:42;98793.59;;;-14.87;87.58
75290;BME280;63883;48.996;20.804;2022-12-18T21:24:08;98795.88;;;-14.89;87.99
75290;BME280;63883;48.996;20.804;2022-12-18T21:26:35;98794.34;;;-14.95;87.64
75290;BME280;63883;48.996;20.804;2022-12-18T21:29:04;98793.88;;;-15.00;87.16
75290;BME280;63883;48.996;20.804;2022-12-18T21:31:33;98780.94;;;-14.83;86.66
75290;BME280;63883;48.996;20.804;2022-12-18T21:34:00;98772.91;;;-14.82;85.87
75290;BME280;63883;48.996;20.804;2022-12-18T21:36:26;98758.69;;;-14.93;86.15
75290;BME280;63883;48.996;20.804;2022-12-18T21:38:53;98760.50;;;-14.99;86.80
75290;BME280;63883;48.996;20.804;2022-12-18T21:41:19;98756.84;;;-15.03;87.50
75290;BME280;63883;48.996;20.804;2022-12-18T21:44:04;98771.44;;;-15.12;86.78
75290;BME280;63883;48.996;20.804;2022-12-18T21:46:30;98781.56;;;-15.31;85.56
75290;BME280;63883;48.996;20.804;2022-12-18T21:48:55;98781.84;;;-15.44;86.63
75290;BME280;63883;48.996;20.804;2022-12-18T21:51:21;98772.38;;;-15.57;86.14
75290;BME280;63883;48.996;20.804;2022-12-18T21:53:47;98776.69;;;-15.54;86.81
75290;BME280;63883;48.996;20.804;2022-12-18T21:56:12;98770.38;;;-15.52;86.39
75290;BME280;63883;48.996;20.804;2022-12-18T21:58:38;98766.13;;;-15.46;87.04
75290;BME280;63883;48.996;20.804;2022-12-18T22:01:04;98765.03;;;-15.41;86.64
75290;BME280;63883;48.996;20.804;2022-12-18T22:03:30;98764.44;;;-15.31;87.77
75290;BME280;63883;48.996;20.804;2022-12-18T22:05:58;98756.44;;;-15.15;87.11
75290;BME280;63883;48.996;20.804;2022-12-18T22:08:24;98757.72;;;-15.02;87.04
75290;BME280;63883;48.996;20.804;2022-12-18T22:10:50;98754.44;;;-14.87;87.47
75290;BME280;63883;48.996;20.804;2022-12-18T22:13:16;98760.69;;;-14.67;86.74
75290;BME280;63883;48.996;20.804;2022-12-18T22:15:42;98750.44;;;-14.55;86.25
75290;BME280;63883;48.996;20.804;2022-12-18T22:18:08;98744.59;;;-14.49;85.73
75290;BME280;63883;48.996;20.804;2022-12-18T22:20:34;98741.19;;;-14.42;86.40
75290;BME280;63883;48.996;20.804;2022-12-18T22:22:59;98749.50;;;-14.25;86.44
75290;BME280;63883;48.996;20.804;2022-12-18T22:25:25;98750.75;;;-14.12;86.56
75290;BME280;63883;48.996;20.804;2022-12-18T22:27:51;98752.53;;;-14.03;85.93
75290;BME280;63883;48.996;20.804;2022-12-18T22:30:35;98740.09;;;-13.89;85.68
75290;BME280;63883;48.996;20.804;2022-12-18T22:33:01;98738.31;;;-13.74;85.90
75290;BME280;63883;48.996;20.804;2022-12-18T22:35:27;98738.53;;;-13.64;85.89
75290;BME280;63883;48.996;20.804;2022-12-18T22:37:53;98739.84;;;-13.59;85.80
75290;BME280;63883;48.996;20.804;2022-12-18T22:40:21;98745.06;;;-13.56;84.66
75290;BME280;63883;48.996;20.804;2022-12-18T22:42:49;98747.25;;;-13.50;85.38
75290;BME280;63883;48.996;20.804;2022-12-18T22:45:14;98745.56;;;-13.42;85.32
75290;BME280;63883;48.996;20.804;2022-12-18T22:47:40;98752.66;;;-13.37;85.12
75290;BME280;63883;48.996;20.804;2022-12-18T22:50:07;98758.97;;;-13.39;83.64
75290;BME280;63883;48.996;20.804;2022-12-18T22:52:34;98754.06;;;-13.48;83.16
75290;BME280;63883;48.996;20.804;2022-12-18T22:55:00;98752.25;;;-13.57;83.42
75290;BME280;63883;48.996;20.804;2022-12-18T22:57:26;98751.38;;;-13.58;83.63
75290;BME280;63883;48.996;20.804;2022-12-18T22:59:51;98745.06;;;-13.56;83.97
75290;BME280;63883;48.996;20.804;2022-12-18T23:02:17;98743.16;;;-13.58;85.24
75290;BME280;63883;48.996;20.804;2022-12-18T23:04:43;98743.28;;;-13.65;86.48
75290;BME280;63883;48.996;20.804;2022-12-18T23:07:09;98737.59;;;-13.73;86.64
75290;BME280;63883;48.996;20.804;2022-12-18T23:09:35;98742.31;;;-13.83;87.00
75290;BME280;63883;48.996;20.804;2022-12-18T23:12:02;98743.41;;;-13.88;87.79
75290;BME280;63883;48.996;20.804;2022-12-18T23:14:28;98749.00;;;-13.98;85.32
75290;BME280;63883;48.996;20.804;2022-12-18T23:16:54;98744.31;;;-14.03;85.36
75290;BME280;63883;48.996;20.804;2022-12-18T23:19:21;98745.91;;;-14.04;85.16
75290;BME280;63883;48.996;20.804;2022-12-18T23:21:47;98751.28;;;-13.99;85.47
75290;BME280;63883;48.996;20.804;2022-12-18T23:24:12;98748.84;;;-13.99;85.47
75290;BME280;63883;48.996;20.804;2022-12-18T23:26:38;98734.84;;;-14.00;85.38
75290;BME280;63883;48.996;20.804;2022-12-18T23:29:04;98742.81;;;-13.94;85.70
75290;BME280;63883;48.996;20.804;2022-12-18T23:31:33;98744.78;;;-13.83;86.04
75290;BME280;63883;48.996;20.804;2022-12-18T23:34:00;98744.50;;;-13.77;87.21
75290;BME280;63883;48.996;20.804;2022-12-18T23:36:26;98735.47;;;-13.70;88.32
75290;BME280;63883;48.996;20.804;2022-12-18T23:38:55;98750.97;;;-13.54;87.92
75290;BME280;63883;48.996;20.804;2022-12-18T23:41:23;98753.47;;;-13.45;88.46
75290;BME280;63883;48.996;20.804;2022-12-18T23:43:49;98753.09;;;-13.32;89.17
75290;BME280;63883;48.996;20.804;2022-12-18T23:46:24;98756.88;;;-13.27;90.27
75290;BME280;63883;48.996;20.804;2022-12-18T23:48:51;98741.72;;;-13.23;90.54
75290;BME280;63883;48.996;20.804;2022-12-18T23:51:19;98746.78;;;-13.22;90.19
75290;BME280;63883;48.996;20.804;2022-12-18T23:53:48;98755.03;;;-13.21;88.82
75290;BME280;63883;48.996;20.804;2022-12-18T23:56:15;98760.66;;;-13.22;88.67
75290;BME280;63883;48.996;20.804;2022-12-18T23:58:41;98751.84;;;-13.20;88.72
